sensor_id;sensor_type;location;lat;lon;timestamp;P1;durP1;ratioP1;P2;durP2;ratioP2
47455;SDS011;33202;48.512;-2.780;2023-09-30T00:03:28;6.10;;;2.03;;
47455;SDS011;33202;48.512;-2.780;2023-09-30T00:05:54;5.93;;;1.75;;
47455;SDS011;33202;48.512;-2.780;2023-09-30T00:08:20;6.82;;;1.88;;
47455;SDS011;33202;48.512;-2.780;2023-09-30T00:10:46;4.60;;;2.03;;
47455;SDS011;33202;48.512;-2.780;2023-09-30T00:13:12;5.45;;;1.70;;
47455;SDS011;33202;48.512;-2.780;2023-09-30T00:15:38;5.93;;;1.73;;
47455;SDS011;33202;48.512;-2.780;2023-09-30T00:18:06;4.30;;;1.30;;
47455;SDS011;33202;48.512;-2.780;2023-09-30T00:20:32;6.97;;;1.75;;
47455;SDS011;33202;48.512;-2.780;2023-09-30T00:22:58;4.90;;;1.75;;
47455;SDS011;33202;48.512;-2.780;2023-09-30T00:25:23;5.53;;;1.52;;
47455;SDS011;33202;48.512;-2.780;2023-09-30T00:27:50;7.60;;;1.95;;
47455;SDS011;33202;48.512;-2.780;2023-09-30T00:30:16;3.60;;;1.38;;
47455;SDS011;33202;48.512;-2.780;2023-09-30T00:32:42;5.93;;;2.00;;
47455;SDS011;33202;48.512;-2.780;2023-09-30T00:35:08;4.47;;;1.35;;
47455;SDS011;33202;48.512;-2.780;2023-09-30T00:37:36;6.05;;;1.55;;
47455;SDS011;33202;48.512;-2.780;2023-09-30T00:40:02;4.45;;;1.77;;
47455;SDS011;33202;48.512;-2.780;2023-09-30T00:42:29;5.80;;;1.55;;
47455;SDS011;33202;48.512;-2.780;2023-09-30T00:44:55;5.72;;;1.50;;
47455;SDS011;33202;48.512;-2.780;2023-09-30T00:47:22;5.07;;;1.30;;
47455;SDS011;33202;48.512;-2.780;2023-09-30T00:52:14;5.95;;;2.08;;
47455;SDS011;33202;48.512;-2.780;2023-09-30T00:54:40;6.00;;;1.60;;
47455;SDS011;33202;48.512;-2.780;2023-09-30T00:57:08;6.05;;;1.58;;
47455;SDS011;33202;48.512;-2.780;2023-09-30T00:59:34;5.05;;;1.40;;
47455;SDS011;33202;48.512;-2.780;2023-09-30T01:02:00;5.85;;;1.92;;
47455;SDS011;33202;48.512;-2.780;2023-09-30T01:04:27;6.13;;;1.60;;
47455;SDS011;33202;48.512;-2.780;2023-09-30T01:06:53;4.68;;;1.33;;
47455;SDS011;33202;48.512;-2.780;2023-09-30T01:09:22;7.22;;;1.65;;
47455;SDS011;33202;48.512;-2.780;2023-09-30T01:11:48;3.80;;;1.70;;
47455;SDS011;33202;48.512;-2.780;2023-09-30T01:14:26;6.88;;;1.92;;
47455;SDS011;33202;48.512;-2.780;2023-09-30T01:16:52;4.88;;;1.60;;
47455;SDS011;33202;48.512;-2.780;2023-09-30T01:19:18;4.93;;;1.40;;
47455;SDS011;33202;48.512;-2.780;2023-09-30T01:21:45;6.00;;;1.67;;
47455;SDS011;33202;48.512;-2.780;2023-09-30T01:24:13;8.48;;;1.98;;
47455;SDS011;33202;48.512;-2.780;2023-09-30T01:26:39;5.15;;;1.50;;
47455;SDS011;33202;48.512;-2.780;2023-09-30T01:34:02;7.65;;;1.75;;
47455;SDS011;33202;48.512;-2.780;2023-09-30T01:36:28;4.20;;;1.30;;
47455;SDS011;33202;48.512;-2.780;2023-09-30T01:38:54;4.97;;;1.42;;
47455;SDS011;33202;48.512;-2.780;2023-09-30T01:41:20;4.65;;;1.65;;
47455;SDS011;33202;48.512;-2.780;2023-09-30T01:43:46;7.47;;;1.58;;
47455;SDS011;33202;48.512;-2.780;2023-09-30T01:46:12;3.95;;;1.52;;
47455;SDS011;33202;48.512;-2.780;2023-09-30T01:48:38;4.78;;;1.63;;
47455;SDS011;33202;48.512;-2.780;2023-09-30T01:51:04;4.63;;;1.75;;
47455;SDS011;33202;48.512;-2.780;2023-09-30T01:53:31;6.20;;;1.75;;
47455;SDS011;33202;48.512;-2.780;2023-09-30T01:55:57;5.60;;;1.70;;
47455;SDS011;33202;48.512;-2.780;2023-09-30T01:58:23;5.97;;;1.27;;
47455;SDS011;33202;48.512;-2.780;2023-09-30T02:00:50;5.43;;;1.60;;
47455;SDS011;33202;48.512;-2.780;2023-09-30T02:03:16;5.90;;;1.67;;
47455;SDS011;33202;48.512;-2.780;2023-09-30T02:05:42;5.90;;;1.45;;
47455;SDS011;33202;48.512;-2.780;2023-09-30T02:08:08;5.97;;;1.40;;
47455;SDS011;33202;48.512;-2.780;2023-09-30T02:10:35;4.30;;;1.60;;
47455;SDS011;33202;48.512;-2.780;2023-09-30T02:13:01;4.18;;;1.60;;
47455;SDS011;33202;48.512;-2.780;2023-09-30T02:15:31;3.72;;;1.42;;
47455;SDS011;33202;48.512;-2.780;2023-09-30T02:17:57;5.07;;;1.60;;
47455;SDS011;33202;48.512;-2.780;2023-09-30T02:20:24;3.95;;;1.15;;
47455;SDS011;33202;48.512;-2.780;2023-09-30T02:22:51;4.90;;;1.40;;
47455;SDS011;33202;48.512;-2.780;2023-09-30T02:25:17;3.60;;;1.13;;
47455;SDS011;33202;48.512;-2.780;2023-09-30T02:27:43;4.85;;;1.60;;
47455;SDS011;33202;48.512;-2.780;2023-09-30T02:30:10;3.97;;;1.40;;
47455;SDS011;33202;48.512;-2.780;2023-09-30T02:32:39;3.55;;;1.38;;
47455;SDS011;33202;48.512;-2.780;2023-09-30T02:35:11;6.13;;;1.63;;
47455;SDS011;33202;48.512;-2.780;2023-09-30T02:37:37;5.05;;;1.48;;
47455;SDS011;33202;48.512;-2.780;2023-09-30T02:40:03;4.85;;;1.48;;
47455;SDS011;33202;48.512;-2.780;2023-09-30T02:42:37;6.03;;;1.77;;
47455;SDS011;33202;48.512;-2.780;2023-09-30T02:45:03;4.57;;;1.55;;
47455;SDS011;33202;48.512;-2.780;2023-09-30T02:47:30;5.22;;;1.40;;
47455;SDS011;33202;48.512;-2.780;2023-09-30T02:49:56;4.07;;;1.07;;
47455;SDS011;33202;48.512;-2.780;2023-09-30T02:52:26;3.88;;;1.10;;
47455;SDS011;33202;48.512;-2.780;2023-09-30T02:54:53;7.82;;;1.63;;
47455;SDS011;33202;48.512;-2.780;2023-09-30T02:57:19;5.72;;;1.45;;
47455;SDS011;33202;48.512;-2.780;2023-09-30T02:59:45;5.78;;;1.80;;
47455;SDS011;33202;48.512;-2.780;2023-09-30T03:02:11;8.07;;;1.52;;
47455;SDS011;33202;48.512;-2.780;2023-09-30T03:04:38;4.18;;;1.70;;
47455;SDS011;33202;48.512;-2.780;2023-09-30T03:07:04;5.32;;;1.30;;
47455;SDS011;33202;48.512;-2.780;2023-09-30T03:09:29;3.85;;;1.40;;
47455;SDS011;33202;48.512;-2.780;2023-09-30T03:11:56;4.25;;;1.60;;
47455;SDS011;33202;48.512;-2.780;2023-09-30T03:14:24;6.45;;;1.40;;
47455;SDS011;33202;48.512;-2.780;2023-09-30T03:16:50;5.53;;;1.25;;
47455;SDS011;33202;48.512;-2.780;2023-09-30T03:19:17;6.75;;;1.42;;
47455;SDS011;33202;48.512;-2.780;2023-09-30T03:21:43;4.93;;;1.30;;
47455;SDS011;33202;48.512;-2.780;2023-09-30T03:24:09;6.55;;;1.70;;
47455;SDS011;33202;48.512;-2.780;2023-09-30T03:26:36;6.85;;;1.67;;
47455;SDS011;33202;48.512;-2.780;2023-09-30T03:29:05;7.47;;;1.60;;
47455;SDS011;33202;48.512;-2.780;2023-09-30T03:31:31;4.95;;;1.33;;
47455;SDS011;33202;48.512;-2.780;2023-09-30T03:33:57;4.88;;;1.60;;
47455;SDS011;33202;48.512;-2.780;2023-09-30T03:38:51;4.18;;;1.35;;
47455;SDS011;33202;48.512;-2.780;2023-09-30T03:41:24;7.35;;;1.30;;
47455;SDS011;33202;48.512;-2.780;2023-09-30T03:43:50;5.20;;;1.60;;
47455;SDS011;33202;48.512;-2.780;2023-09-30T03:46:16;3.97;;;1.52;;
47455;SDS011;33202;48.512;-2.780;2023-09-30T03:48:42;3.38;;;1.10;;
47455;SDS011;33202;48.512;-2.780;2023-09-30T03:51:10;5.00;;;1.10;;
47455;SDS011;33202;48.512;-2.780;2023-09-30T03:53:42;4.97;;;1.60;;
47455;SDS011;33202;48.512;-2.780;2023-09-30T03:56:09;4.25;;;1.65;;
47455;SDS011;33202;48.512;-2.780;2023-09-30T03:58:41;4.18;;;1.45;;
47455;SDS011;33202;48.512;-2.780;2023-09-30T04:01:08;5.20;;;1.45;;
47455;SDS011;33202;48.512;-2.780;2023-09-30T04:03:36;3.88;;;1.20;;
47455;SDS011;33202;48.512;-2.780;2023-09-30T04:06:04;7.80;;;2.03;;
47455;SDS011;33202;48.512;-2.780;2023-09-30T04:10:58;6.72;;;1.67;;
47455;SDS011;33202;48.512;-2.780;2023-09-30T04:13:25;6.55;;;1.33;;
47455;SDS011;33202;48.512;-2.780;2023-09-30T04:15:51;5.22;;;1.38;;
47455;SDS011;33202;48.512;-2.780;2023-09-30T04:18:17;5.20;;;1.35;;
47455;SDS011;33202;48.512;-2.780;2023-09-30T04:20:45;6.88;;;1.63;;
47455;SDS011;33202;48.512;-2.780;2023-09-30T04:23:12;4.70;;;1.63;;
47455;SDS011;33202;48.512;-2.780;2023-09-30T04:25:38;8.82;;;1.67;;
47455;SDS011;33202;48.512;-2.780;2023-09-30T04:28:05;8.97;;;1.87;;
47455;SDS011;33202;48.512;-2.780;2023-09-30T04:30:32;4.50;;;1.10;;
47455;SDS011;33202;48.512;-2.780;2023-09-30T04:32:58;5.18;;;1.40;;
47455;SDS011;33202;48.512;-2.780;2023-09-30T04:35:24;5.18;;;1.50;;
47455;SDS011;33202;48.512;-2.780;2023-09-30T04:37:51;5.55;;;1.63;;
47455;SDS011;33202;48.512;-2.780;2023-09-30T04:40:17;5.93;;;1.40;;
47455;SDS011;33202;48.512;-2.780;2023-09-30T04:42:46;4.90;;;1.40;;
47455;SDS011;33202;48.512;-2.780;2023-09-30T04:45:13;4.03;;;1.20;;
47455;SDS011;33202;48.512;-2.780;2023-09-30T04:47:41;6.03;;;1.52;;
47455;SDS011;33202;48.512;-2.780;2023-09-30T04:50:09;5.70;;;1.60;;
47455;SDS011;33202;48.512;-2.780;2023-09-30T04:52:36;5.97;;;1.50;;
47455;SDS011;33202;48.512;-2.780;2023-09-30T04:55:04;4.28;;;1.50;;
47455;SDS011;33202;48.512;-2.780;2023-09-30T04:57:30;4.90;;;1.27;;
47455;SDS011;33202;48.512;-2.780;2023-09-30T04:59:57;3.90;;;1.40;;
47455;SDS011;33202;48.512;-2.780;2023-09-30T05:02:23;5.80;;;1.50;;
47455;SDS011;33202;48.512;-2.780;2023-09-30T05:04:49;6.15;;;1.42;;
47455;SDS011;33202;48.512;-2.780;2023-09-30T05:07:15;5.57;;;1.40;;
47455;SDS011;33202;48.512;-2.780;2023-09-30T05:09:41;4.95;;;1.23;;
47455;SDS011;33202;48.512;-2.780;2023-09-30T05:12:08;4.65;;;1.30;;
47455;SDS011;33202;48.512;-2.780;2023-09-30T05:14:35;5.07;;;1.50;;
47455;SDS011;33202;48.512;-2.780;2023-09-30T05:17:02;5.90;;;1.65;;
47455;SDS011;33202;48.512;-2.780;2023-09-30T05:19:29;4.45;;;1.30;;
47455;SDS011;33202;48.512;-2.780;2023-09-30T05:21:57;5.65;;;1.50;;
47455;SDS011;33202;48.512;-2.780;2023-09-30T05:24:23;6.53;;;1.13;;
47455;SDS011;33202;48.512;-2.780;2023-09-30T05:26:49;5.90;;;1.85;;
47455;SDS011;33202;48.512;-2.780;2023-09-30T05:29:15;5.05;;;1.27;;
47455;SDS011;33202;48.512;-2.780;2023-09-30T05:31:41;5.03;;;1.47;;
47455;SDS011;33202;48.512;-2.780;2023-09-30T05:34:07;6.75;;;2.17;;
47455;SDS011;33202;48.512;-2.780;2023-09-30T05:36:33;4.93;;;1.90;;
47455;SDS011;33202;48.512;-2.780;2023-09-30T05:39:00;6.00;;;2.03;;
47455;SDS011;33202;48.512;-2.780;2023-09-30T05:41:27;6.57;;;2.03;;
47455;SDS011;33202;48.512;-2.780;2023-09-30T05:43:54;7.63;;;1.77;;
47455;SDS011;33202;48.512;-2.780;2023-09-30T05:46:20;5.20;;;1.30;;
47455;SDS011;33202;48.512;-2.780;2023-09-30T05:48:47;5.82;;;1.77;;
47455;SDS011;33202;48.512;-2.780;2023-09-30T05:51:13;4.30;;;1.48;;
47455;SDS011;33202;48.512;-2.780;2023-09-30T05:53:40;4.60;;;1.60;;
47455;SDS011;33202;48.512;-2.780;2023-09-30T05:56:07;5.13;;;1.48;;
47455;SDS011;33202;48.512;-2.780;2023-09-30T05:58:33;5.70;;;1.65;;
47455;SDS011;33202;48.512;-2.780;2023-09-30T06:00:59;4.10;;;1.50;;
47455;SDS011;33202;48.512;-2.780;2023-09-30T06:03:25;4.07;;;1.50;;
47455;SDS011;33202;48.512;-2.780;2023-09-30T06:05:54;4.55;;;1.67;;
47455;SDS011;33202;48.512;-2.780;2023-09-30T06:08:21;5.30;;;1.52;;
47455;SDS011;33202;48.512;-2.780;2023-09-30T06:10:47;6.45;;;2.08;;
47455;SDS011;33202;48.512;-2.780;2023-09-30T06:13:13;5.80;;;1.85;;
47455;SDS011;33202;48.512;-2.780;2023-09-30T06:15:40;5.25;;;1.50;;
47455;SDS011;33202;48.512;-2.780;2023-09-30T06:18:07;4.75;;;1.95;;
47455;SDS011;33202;48.512;-2.780;2023-09-30T06:20:35;6.32;;;1.40;;
47455;SDS011;33202;48.512;-2.780;2023-09-30T06:23:01;2.85;;;1.13;;
47455;SDS011;33202;48.512;-2.780;2023-09-30T06:25:27;5.35;;;1.25;;
47455;SDS011;33202;48.512;-2.780;2023-09-30T06:27:55;7.20;;;2.20;;
47455;SDS011;33202;48.512;-2.780;2023-09-30T06:30:21;6.72;;;1.60;;
47455;SDS011;33202;48.512;-2.780;2023-09-30T06:32:54;5.90;;;1.65;;
47455;SDS011;33202;48.512;-2.780;2023-09-30T06:35:20;3.50;;;1.40;;
47455;SDS011;33202;48.512;-2.780;2023-09-30T06:37:46;6.20;;;1.80;;
47455;SDS011;33202;48.512;-2.780;2023-09-30T06:40:13;6.15;;;1.90;;
47455;SDS011;33202;48.512;-2.780;2023-09-30T06:42:39;4.30;;;1.58;;
47455;SDS011;33202;48.512;-2.780;2023-09-30T06:45:05;5.68;;;1.60;;
47455;SDS011;33202;48.512;-2.780;2023-09-30T06:47:31;5.85;;;1.60;;
47455;SDS011;33202;48.512;-2.780;2023-09-30T06:49:59;6.38;;;1.50;;
47455;SDS011;33202;48.512;-2.780;2023-09-30T06:52:32;6.50;;;1.70;;
47455;SDS011;33202;48.512;-2.780;2023-09-30T06:54:58;6.15;;;1.50;;
47455;SDS011;33202;48.512;-2.780;2023-09-30T06:57:24;4.03;;;1.52;;
47455;SDS011;33202;48.512;-2.780;2023-09-30T06:59:50;7.03;;;1.73;;
47455;SDS011;33202;48.512;-2.780;2023-09-30T07:02:16;4.97;;;1.73;;
47455;SDS011;33202;48.512;-2.780;2023-09-30T07:04:42;5.97;;;1.52;;
47455;SDS011;33202;48.512;-2.780;2023-09-30T07:07:08;5.07;;;1.85;;
47455;SDS011;33202;48.512;-2.780;2023-09-30T07:09:34;5.25;;;1.70;;
47455;SDS011;33202;48.512;-2.780;2023-09-30T07:12:01;4.38;;;2.25;;
47455;SDS011;33202;48.512;-2.780;2023-09-30T07:14:27;11.60;;;2.30;;
47455;SDS011;33202;48.512;-2.780;2023-09-30T07:16:53;4.47;;;1.73;;
47455;SDS011;33202;48.512;-2.780;2023-09-30T07:19:19;5.70;;;1.73;;
47455;SDS011;33202;48.512;-2.780;2023-09-30T07:21:45;3.78;;;1.48;;
47455;SDS011;33202;48.512;-2.780;2023-09-30T07:24:11;7.32;;;2.00;;
47455;SDS011;33202;48.512;-2.780;2023-09-30T07:26:37;5.78;;;1.80;;
47455;SDS011;33202;48.512;-2.780;2023-09-30T07:29:03;5.47;;;1.98;;
47455;SDS011;33202;48.512;-2.780;2023-09-30T07:31:33;5.00;;;1.65;;
47455;SDS011;33202;48.512;-2.780;2023-09-30T07:33:59;5.85;;;2.05;;
47455;SDS011;33202;48.512;-2.780;2023-09-30T07:36:26;6.13;;;2.00;;
47455;SDS011;33202;48.512;-2.780;2023-09-30T07:38:52;4.53;;;1.77;;
47455;SDS011;33202;48.512;-2.780;2023-09-30T07:41:18;4.97;;;1.95;;
47455;SDS011;33202;48.512;-2.780;2023-09-30T07:43:44;5.28;;;1.70;;
47455;SDS011;33202;48.512;-2.780;2023-09-30T07:46:10;5.20;;;1.75;;
47455;SDS011;33202;48.512;-2.780;2023-09-30T07:48:36;5.78;;;2.20;;
47455;SDS011;33202;48.512;-2.780;2023-09-30T07:51:04;4.28;;;1.60;;
47455;SDS011;33202;48.512;-2.780;2023-09-30T07:53:31;5.38;;;2.00;;
47455;SDS011;33202;48.512;-2.780;2023-09-30T07:55:57;4.13;;;1.60;;
47455;SDS011;33202;48.512;-2.780;2023-09-30T07:58:23;4.10;;;1.83;;
47455;SDS011;33202;48.512;-2.780;2023-09-30T08:00:50;4.70;;;1.45;;
47455;SDS011;33202;48.512;-2.780;2023-09-30T08:03:16;4.88;;;1.70;;
47455;SDS011;33202;48.512;-2.780;2023-09-30T08:05:42;3.92;;;1.65;;
47455;SDS011;33202;48.512;-2.780;2023-09-30T08:08:08;3.85;;;1.58;;
47455;SDS011;33202;48.512;-2.780;2023-09-30T08:10:34;3.22;;;1.50;;
47455;SDS011;33202;48.512;-2.780;2023-09-30T08:13:01;5.25;;;1.90;;
47455;SDS011;33202;48.512;-2.780;2023-09-30T08:15:27;4.95;;;1.65;;
47455;SDS011;33202;48.512;-2.780;2023-09-30T08:17:53;6.75;;;2.38;;
47455;SDS011;33202;48.512;-2.780;2023-09-30T08:20:19;6.75;;;2.33;;
47455;SDS011;33202;48.512;-2.780;2023-09-30T08:22:45;7.70;;;2.58;;
47455;SDS011;33202;48.512;-2.780;2023-09-30T08:25:12;7.75;;;2.17;;
47455;SDS011;33202;48.512;-2.780;2023-09-30T08:27:38;8.25;;;2.72;;
47455;SDS011;33202;48.512;-2.780;2023-09-30T08:30:04;12.40;;;3.30;;
47455;SDS011;33202;48.512;-2.780;2023-09-30T08:32:32;13.25;;;3.40;;
47455;SDS011;33202;48.512;-2.780;2023-09-30T08:34:58;13.88;;;3.75;;
47455;SDS011;33202;48.512;-2.780;2023-09-30T08:37:24;12.40;;;3.55;;
47455;SDS011;33202;48.512;-2.780;2023-09-30T08:39:50;14.93;;;3.35;;
47455;SDS011;33202;48.512;-2.780;2023-09-30T08:42:16;11.95;;;4.15;;
47455;SDS011;33202;48.512;-2.780;2023-09-30T08:44:44;9.63;;;2.75;;
47455;SDS011;33202;48.512;-2.780;2023-09-30T08:47:11;13.48;;;3.42;;
47455;SDS011;33202;48.512;-2.780;2023-09-30T08:49:38;12.45;;;3.60;;
47455;SDS011;33202;48.512;-2.780;2023-09-30T08:52:05;8.20;;;2.90;;
47455;SDS011;33202;48.512;-2.780;2023-09-30T08:54:31;11.10;;;3.72;;
47455;SDS011;33202;48.512;-2.780;2023-09-30T08:56:58;13.90;;;3.10;;
47455;SDS011;33202;48.512;-2.780;2023-09-30T08:59:25;13.73;;;3.90;;
47455;SDS011;33202;48.512;-2.780;2023-09-30T09:01:51;10.00;;;3.47;;
47455;SDS011;33202;48.512;-2.780;2023-09-30T09:04:18;9.65;;;3.45;;
47455;SDS011;33202;48.512;-2.780;2023-09-30T09:06:44;12.23;;;3.85;;
47455;SDS011;33202;48.512;-2.780;2023-09-30T09:09:14;14.55;;;4.32;;
47455;SDS011;33202;48.512;-2.780;2023-09-30T09:11:42;11.32;;;3.83;;
47455;SDS011;33202;48.512;-2.780;2023-09-30T09:14:08;18.33;;;5.43;;
47455;SDS011;33202;48.512;-2.780;2023-09-30T09:16:34;11.93;;;4.43;;
47455;SDS011;33202;48.512;-2.780;2023-09-30T09:19:12;16.20;;;4.60;;
47455;SDS011;33202;48.512;-2.780;2023-09-30T09:21:39;18.90;;;4.63;;
47455;SDS011;33202;48.512;-2.780;2023-09-30T09:27:03;12.20;;;4.18;;
47455;SDS011;33202;48.512;-2.780;2023-09-30T09:29:29;13.88;;;4.05;;
47455;SDS011;33202;48.512;-2.780;2023-09-30T09:32:06;15.88;;;4.35;;
47455;SDS011;33202;48.512;-2.780;2023-09-30T09:34:32;15.18;;;4.35;;
47455;SDS011;33202;48.512;-2.780;2023-09-30T09:36:58;12.85;;;4.82;;
47455;SDS011;33202;48.512;-2.780;2023-09-30T09:39:30;12.23;;;4.63;;
47455;SDS011;33202;48.512;-2.780;2023-09-30T09:41:57;16.30;;;4.63;;
47455;SDS011;33202;48.512;-2.780;2023-09-30T09:44:26;14.73;;;5.45;;
47455;SDS011;33202;48.512;-2.780;2023-09-30T09:46:52;12.85;;;4.80;;
47455;SDS011;33202;48.512;-2.780;2023-09-30T09:49:19;12.45;;;4.50;;
47455;SDS011;33202;48.512;-2.780;2023-09-30T09:51:45;13.02;;;5.90;;
47455;SDS011;33202;48.512;-2.780;2023-09-30T09:54:12;12.65;;;5.20;;
47455;SDS011;33202;48.512;-2.780;2023-09-30T09:56:38;15.85;;;5.68;;
47455;SDS011;33202;48.512;-2.780;2023-09-30T09:59:04;16.20;;;5.88;;
47455;SDS011;33202;48.512;-2.780;2023-09-30T10:01:33;16.80;;;5.50;;
47455;SDS011;33202;48.512;-2.780;2023-09-30T10:04:00;14.65;;;5.45;;
47455;SDS011;33202;48.512;-2.780;2023-09-30T10:06:26;15.52;;;5.60;;
47455;SDS011;33202;48.512;-2.780;2023-09-30T10:08:53;14.07;;;5.10;;
47455;SDS011;33202;48.512;-2.780;2023-09-30T10:11:20;13.90;;;5.18;;
47455;SDS011;33202;48.512;-2.780;2023-09-30T10:19:20;20.55;;;5.93;;
47455;SDS011;33202;48.512;-2.780;2023-09-30T10:24:34;16.70;;;6.05;;
47455;SDS011;33202;48.512;-2.780;2023-09-30T10:29:44;13.23;;;5.72;;
47455;SDS011;33202;48.512;-2.780;2023-09-30T10:32:10;13.43;;;5.65;;
47455;SDS011;33202;48.512;-2.780;2023-09-30T10:34:36;14.93;;;5.97;;
47455;SDS011;33202;48.512;-2.780;2023-09-30T10:37:20;13.55;;;5.53;;
47455;SDS011;33202;48.512;-2.780;2023-09-30T10:39:56;18.02;;;6.57;;
47455;SDS011;33202;48.512;-2.780;2023-09-30T10:51:21;15.05;;;5.90;;
47455;SDS011;33202;48.512;-2.780;2023-09-30T10:53:51;16.98;;;6.35;;
47455;SDS011;33202;48.512;-2.780;2023-09-30T10:56:20;11.43;;;5.85;;
47455;SDS011;33202;48.512;-2.780;2023-09-30T10:58:47;15.85;;;5.78;;
47455;SDS011;33202;48.512;-2.780;2023-09-30T11:01:17;14.77;;;5.90;;
47455;SDS011;33202;48.512;-2.780;2023-09-30T11:03:44;19.00;;;6.20;;
47455;SDS011;33202;48.512;-2.780;2023-09-30T11:06:14;15.75;;;6.30;;
47455;SDS011;33202;48.512;-2.780;2023-09-30T11:08:51;15.02;;;6.40;;
47455;SDS011;33202;48.512;-2.780;2023-09-30T11:11:18;12.25;;;5.40;;
47455;SDS011;33202;48.512;-2.780;2023-09-30T11:13:44;13.60;;;5.60;;
47455;SDS011;33202;48.512;-2.780;2023-09-30T11:16:10;14.68;;;5.93;;
47455;SDS011;33202;48.512;-2.780;2023-09-30T11:18:37;13.20;;;5.00;;
47455;SDS011;33202;48.512;-2.780;2023-09-30T11:21:04;14.80;;;5.80;;
47455;SDS011;33202;48.512;-2.780;2023-09-30T11:23:30;17.33;;;5.95;;
47455;SDS011;33202;48.512;-2.780;2023-09-30T11:25:57;17.10;;;6.27;;
47455;SDS011;33202;48.512;-2.780;2023-09-30T11:28:23;18.65;;;6.13;;
47455;SDS011;33202;48.512;-2.780;2023-09-30T11:33:20;12.65;;;5.55;;
47455;SDS011;33202;48.512;-2.780;2023-09-30T11:41:03;41.72;;;18.75;;
47455;SDS011;33202;48.512;-2.780;2023-09-30T11:43:33;16.95;;;6.22;;
47455;SDS011;33202;48.512;-2.780;2023-09-30T11:48:33;14.40;;;5.68;;
47455;SDS011;33202;48.512;-2.780;2023-09-30T11:51:00;13.85;;;5.80;;
47455;SDS011;33202;48.512;-2.780;2023-09-30T11:53:28;13.55;;;5.45;;
47455;SDS011;33202;48.512;-2.780;2023-09-30T11:55:55;15.15;;;6.22;;
47455;SDS011;33202;48.512;-2.780;2023-09-30T11:58:23;13.18;;;5.47;;
47455;SDS011;33202;48.512;-2.780;2023-09-30T12:00:48;13.95;;;5.65;;
47455;SDS011;33202;48.512;-2.780;2023-09-30T12:03:16;12.98;;;5.53;;
47455;SDS011;33202;48.512;-2.780;2023-09-30T12:05:42;18.35;;;6.72;;
47455;SDS011;33202;48.512;-2.780;2023-09-30T12:08:10;17.38;;;6.13;;
47455;SDS011;33202;48.512;-2.780;2023-09-30T12:10:36;13.70;;;5.30;;
47455;SDS011;33202;48.512;-2.780;2023-09-30T12:13:03;14.25;;;5.93;;
47455;SDS011;33202;48.512;-2.780;2023-09-30T12:15:29;15.38;;;5.57;;
47455;SDS011;33202;48.512;-2.780;2023-09-30T12:17:55;15.65;;;5.75;;
47455;SDS011;33202;48.512;-2.780;2023-09-30T12:20:21;13.90;;;6.15;;
47455;SDS011;33202;48.512;-2.780;2023-09-30T12:22:48;17.05;;;5.65;;
47455;SDS011;33202;48.512;-2.780;2023-09-30T12:25:14;18.95;;;6.93;;
47455;SDS011;33202;48.512;-2.780;2023-09-30T12:27:41;16.92;;;5.97;;
47455;SDS011;33202;48.512;-2.780;2023-09-30T12:30:07;16.85;;;6.55;;
47455;SDS011;33202;48.512;-2.780;2023-09-30T12:32:33;15.98;;;6.13;;
47455;SDS011;33202;48.512;-2.780;2023-09-30T12:35:00;15.10;;;6.40;;
47455;SDS011;33202;48.512;-2.780;2023-09-30T12:37:26;15.88;;;6.20;;
47455;SDS011;33202;48.512;-2.780;2023-09-30T12:39:52;12.77;;;5.15;;
47455;SDS011;33202;48.512;-2.780;2023-09-30T12:42:18;16.35;;;5.57;;
47455;SDS011;33202;48.512;-2.780;2023-09-30T12:44:44;16.85;;;6.60;;
47455;SDS011;33202;48.512;-2.780;2023-09-30T12:47:11;14.40;;;5.85;;
47455;SDS011;33202;48.512;-2.780;2023-09-30T12:49:37;15.20;;;6.47;;
47455;SDS011;33202;48.512;-2.780;2023-09-30T12:52:03;20.83;;;6.18;;
47455;SDS011;33202;48.512;-2.780;2023-09-30T12:54:30;11.00;;;5.45;;
47455;SDS011;33202;48.512;-2.780;2023-09-30T12:56:56;19.40;;;6.47;;
47455;SDS011;33202;48.512;-2.780;2023-09-30T12:59:22;14.45;;;5.90;;
47455;SDS011;33202;48.512;-2.780;2023-09-30T13:01:50;16.52;;;6.13;;
47455;SDS011;33202;48.512;-2.780;2023-09-30T13:04:17;14.00;;;5.70;;
47455;SDS011;33202;48.512;-2.780;2023-09-30T13:06:43;18.38;;;6.97;;
47455;SDS011;33202;48.512;-2.780;2023-09-30T13:09:10;29.38;;;12.13;;
47455;SDS011;33202;48.512;-2.780;2023-09-30T13:11:37;18.52;;;6.90;;
47455;SDS011;33202;48.512;-2.780;2023-09-30T13:14:03;11.77;;;5.50;;
47455;SDS011;33202;48.512;-2.780;2023-09-30T13:16:29;13.30;;;6.03;;
47455;SDS011;33202;48.512;-2.780;2023-09-30T13:18:56;14.52;;;5.55;;
47455;SDS011;33202;48.512;-2.780;2023-09-30T13:21:22;16.83;;;5.90;;
47455;SDS011;33202;48.512;-2.780;2023-09-30T13:23:48;13.45;;;6.38;;
47455;SDS011;33202;48.512;-2.780;2023-09-30T13:26:14;12.18;;;5.43;;
47455;SDS011;33202;48.512;-2.780;2023-09-30T13:28:40;13.75;;;6.20;;
47455;SDS011;33202;48.512;-2.780;2023-09-30T13:31:06;17.48;;;6.22;;
47455;SDS011;33202;48.512;-2.780;2023-09-30T13:33:32;14.48;;;5.70;;
47455;SDS011;33202;48.512;-2.780;2023-09-30T13:35:58;17.92;;;6.53;;
47455;SDS011;33202;48.512;-2.780;2023-09-30T13:38:25;14.82;;;6.03;;
47455;SDS011;33202;48.512;-2.780;2023-09-30T13:40:51;15.00;;;6.60;;
47455;SDS011;33202;48.512;-2.780;2023-09-30T13:43:17;16.88;;;6.40;;
47455;SDS011;33202;48.512;-2.780;2023-09-30T13:45:43;14.88;;;6.20;;
47455;SDS011;33202;48.512;-2.780;2023-09-30T13:48:09;15.75;;;6.50;;
47455;SDS011;33202;48.512;-2.780;2023-09-30T13:50:36;13.77;;;5.90;;
47455;SDS011;33202;48.512;-2.780;2023-09-30T13:53:02;15.55;;;6.30;;
47455;SDS011;33202;48.512;-2.780;2023-09-30T13:55:28;12.93;;;6.13;;
47455;SDS011;33202;48.512;-2.780;2023-09-30T13:57:54;17.48;;;6.40;;
47455;SDS011;33202;48.512;-2.780;2023-09-30T14:00:20;13.18;;;5.88;;
47455;SDS011;33202;48.512;-2.780;2023-09-30T14:02:46;17.75;;;6.80;;
47455;SDS011;33202;48.512;-2.780;2023-09-30T14:05:12;15.18;;;6.30;;
47455;SDS011;33202;48.512;-2.780;2023-09-30T14:07:38;13.80;;;5.57;;
47455;SDS011;33202;48.512;-2.780;2023-09-30T14:10:08;14.13;;;6.22;;
47455;SDS011;33202;48.512;-2.780;2023-09-30T14:12:35;15.05;;;5.80;;
47455;SDS011;33202;48.512;-2.780;2023-09-30T14:15:02;13.48;;;5.25;;
47455;SDS011;33202;48.512;-2.780;2023-09-30T14:17:30;14.85;;;5.88;;
47455;SDS011;33202;48.512;-2.780;2023-09-30T14:19:56;16.48;;;5.45;;
47455;SDS011;33202;48.512;-2.780;2023-09-30T14:22:22;12.23;;;5.72;;
47455;SDS011;33202;48.512;-2.780;2023-09-30T14:24:48;16.70;;;6.25;;
47455;SDS011;33202;48.512;-2.780;2023-09-30T14:27:14;13.48;;;5.63;;
47455;SDS011;33202;48.512;-2.780;2023-09-30T14:29:40;11.97;;;5.53;;
47455;SDS011;33202;48.512;-2.780;2023-09-30T14:32:08;14.52;;;5.85;;
47455;SDS011;33202;48.512;-2.780;2023-09-30T14:34:34;15.00;;;6.13;;
47455;SDS011;33202;48.512;-2.780;2023-09-30T14:37:00;12.07;;;5.82;;
47455;SDS011;33202;48.512;-2.780;2023-09-30T14:39:26;15.98;;;5.85;;
47455;SDS011;33202;48.512;-2.780;2023-09-30T14:41:52;14.77;;;5.95;;
47455;SDS011;33202;48.512;-2.780;2023-09-30T14:44:18;18.67;;;6.05;;
47455;SDS011;33202;48.512;-2.780;2023-09-30T14:46:46;14.82;;;5.32;;
47455;SDS011;33202;48.512;-2.780;2023-09-30T14:49:13;12.88;;;5.45;;
47455;SDS011;33202;48.512;-2.780;2023-09-30T14:51:40;18.35;;;5.75;;
47455;SDS011;33202;48.512;-2.780;2023-09-30T14:54:06;13.07;;;5.40;;
47455;SDS011;33202;48.512;-2.780;2023-09-30T14:56:38;12.43;;;5.00;;
47455;SDS011;33202;48.512;-2.780;2023-09-30T14:59:04;12.02;;;5.60;;
47455;SDS011;33202;48.512;-2.780;2023-09-30T15:05:02;10.48;;;5.65;;
47455;SDS011;33202;48.512;-2.780;2023-09-30T15:11:13;10.73;;;4.38;;
47455;SDS011;33202;48.512;-2.780;2023-09-30T15:13:57;9.30;;;4.85;;
47455;SDS011;33202;48.512;-2.780;2023-09-30T15:16:49;11.40;;;5.18;;
47455;SDS011;33202;48.512;-2.780;2023-09-30T15:22:04;9.43;;;4.57;;
47455;SDS011;33202;48.512;-2.780;2023-09-30T15:27:51;14.35;;;4.60;;